Time;durP1;ratioP1;P1;durP2;ratioP2;P2;SDS_P1;SDS_P2;PMS_P1;PMS_P2;Temp;Humidity;BMP_temperature;BMP_pressure;BME280_temperature;BME280_humidity;BME280_pressure;Samples;Min_cycle;Max_cycle;Signal;HPM_P1;HPM_P2
2020/12/29 00:01:38;;;;;;;6.23;2.87;;;5.50;94.50;;;;;;5011308;28;20494;-80
2020/12/29 00:04:10;;;;;;;5.33;2.93;;;5.40;94.40;;;;;;5030591;28;20041;-80
2020/12/29 00:06:53;;;;;;;5.50;2.27;;;5.40;94.40;;;;;;5030945;28;20045;-80
2020/12/29 00:09:22;;;;;;;4.60;2.37;;;5.40;94.70;;;;;;5006362;28;20112;-80
2020/12/29 00:11:49;;;;;;;5.37;2.47;;;5.40;94.50;;;;;;5032223;28;20125;-79
2020/12/29 00:14:17;;;;;;;3.70;2.10;;;5.40;94.50;;;;;;5028993;28;20092;-80
2020/12/29 00:16:46;;;;;;;5.13;2.60;;;5.40;94.50;;;;;;5026632;28;20057;-81
2020/12/29 00:19:18;;;;;;;4.60;2.30;;;5.40;94.60;;;;;;5021877;28;20137;-80
2020/12/29 00:21:44;;;;;;;4.43;2.10;;;5.50;94.50;;;;;;5015597;28;20552;-80
2020/12/29 00:24:13;;;;;;;5.00;2.50;;;5.50;94.50;;;;;;4999981;28;20567;-78
2020/12/29 00:26:59;;;;;;;4.17;1.90;;;5.50;94.50;;;;;;5015908;28;20455;-78
2020/12/29 00:29:26;;;;;;;5.03;2.40;;;5.50;94.50;;;;;;5015881;28;20042;-78
2020/12/29 00:31:52;;;;;;;5.07;2.87;;;5.50;94.50;;;;;;5014388;28;20499;-78
2020/12/29 00:34:19;;;;;;;5.80;2.80;;;5.50;94.50;;;;;;5031009;28;20079;-78
2020/12/29 00:36:46;;;;;;;4.90;1.97;;;5.40;94.50;;;;;;5016735;28;20413;-78
2020/12/29 00:39:12;;;;;;;2.83;1.83;;;5.40;94.50;;;;;;5015452;28;20053;-78
2020/12/29 00:41:39;;;;;;;4.10;2.63;;;5.40;94.50;;;;;;5018388;28;20044;-78
2020/12/29 00:44:06;;;;;;;5.43;3.13;;;5.40;94.50;;;;;;5035378;28;20048;-77
2020/12/29 00:46:32;;;;;;;4.90;2.30;;;5.40;94.50;;;;;;5019160;28;20057;-78
2020/12/29 00:48:59;;;;;;;5.03;2.73;;;5.40;94.50;;;;;;5016272;28;20120;-78
2020/12/29 00:51:25;;;;;;;4.80;2.77;;;5.40;94.50;;;;;;5047604;28;20046;-78
2020/12/29 00:53:57;;;;;;;4.50;2.10;;;5.40;94.50;;;;;;4998996;28;20042;-78
2020/12/29 00:56:24;;;;;;;3.10;1.93;;;5.40;94.50;;;;;;5014469;28;20285;-78
2020/12/29 00:58:54;;;;;;;4.20;2.10;;;5.40;94.50;;;;;;5012085;28;20045;-78
2020/12/29 01:01:25;;;;;;;4.90;2.57;;;5.30;94.50;;;;;;5005353;28;20045;-78
2020/12/29 01:04:18;;;;;;;4.70;3.00;;;5.30;94.50;;;;;;5024686;28;20132;-78
2020/12/29 01:06:45;;;;;;;4.83;2.10;;;5.30;94.50;;;;;;5016303;28;20096;-78
2020/12/29 01:09:18;;;;;;;4.97;2.43;;;5.30;94.50;;;;;;5019077;28;20452;-77
2020/12/29 01:11:45;;;;;;;3.93;1.90;;;5.30;94.50;;;;;;5004355;28;20141;-78
2020/12/29 01:14:12;;;;;;;4.53;2.03;;;5.40;94.80;;;;;;5002222;28;20030;-78
2020/12/29 01:16:55;;;;;;;2.83;1.87;;;5.40;94.60;;;;;;5031744;28;20069;-78
2020/12/29 01:19:22;;;;;;;3.10;1.60;;;5.40;94.60;;;;;;5017267;28;20038;-78
2020/12/29 01:21:51;;;;;;;2.73;1.43;;;5.40;94.60;;;;;;5005101;28;20050;-78
2020/12/29 01:24:18;;;;;;;3.77;2.07;;;5.40;94.60;;;;;;5013210;28;20040;-78
2020/12/29 01:26:45;;;;;;;3.27;1.90;;;5.40;94.60;;;;;;4997489;28;20104;-78
2020/12/29 01:29:11;;;;;;;5.53;2.43;;;5.40;94.50;;;;;;5012665;28;20467;-78
2020/12/29 01:31:38;;;;;;;3.10;1.73;;;5.40;94.50;;;;;;5012556;28;20068;-78
2020/12/29 01:34:06;;;;;;;3.40;1.83;;;5.40;94.80;;;;;;5012196;28;20038;-78
2020/12/29 01:36:33;;;;;;;3.50;1.67;;;5.40;94.50;;;;;;5024674;28;20469;-78
2020/12/29 01:38:59;;;;;;;3.77;1.80;;;5.40;94.50;;;;;;5016085;28;20457;-75
2020/12/29 01:41:26;;;;;;;3.57;1.50;;;5.40;94.50;;;;;;5013320;28;20045;-75
2020/12/29 01:43:52;;;;;;;4.13;2.03;;;5.40;94.60;;;;;;4996974;28;20069;-75
2020/12/29 01:46:19;;;;;;;3.13;1.63;;;5.40;94.50;;;;;;4993803;28;20038;-75
2020/12/29 01:48:47;;;;;;;4.00;1.50;;;5.40;94.50;;;;;;5007795;28;20065;-77
2020/12/29 01:51:14;;;;;;;3.83;1.93;;;5.40;94.60;;;;;;5013408;28;20501;-78
2020/12/29 01:53:41;;;;;;;4.67;2.47;;;5.40;94.50;;;;;;5013475;28;20038;-78
2020/12/29 01:56:13;;;;;;;5.47;2.77;;;5.40;94.70;;;;;;5013034;28;20045;-77
2020/12/29 01:58:44;;;;;;;4.13;2.30;;;5.40;94.50;;;;;;5014489;28;20041;-78
2020/12/29 02:01:12;;;;;;;4.30;2.00;;;5.30;94.40;;;;;;5013029;28;20810;-78
2020/12/29 02:03:41;;;;;;;4.40;2.63;;;5.30;94.50;;;;;;5014303;28;20046;-78
2020/12/29 02:06:07;;;;;;;3.40;2.03;;;5.30;94.50;;;;;;5014025;28;20042;-77
2020/12/29 02:08:34;;;;;;;3.27;1.77;;;5.30;94.50;;;;;;5013084;28;20037;-78
2020/12/29 02:11:01;;;;;;;5.33;2.60;;;5.30;94.50;;;;;;5013196;28;20486;-78
2020/12/29 02:13:28;;;;;;;3.70;2.20;;;5.30;94.50;;;;;;4992902;28;20442;-78
2020/12/29 02:15:54;;;;;;;3.77;1.90;;;5.30;94.50;;;;;;5005261;28;20093;-78
2020/12/29 02:18:21;;;;;;;4.37;2.10;;;5.30;94.60;;;;;;5011273;28;20049;-78
2020/12/29 02:20:47;;;;;;;3.53;1.53;;;5.30;94.50;;;;;;5012654;28;20555;-78
2020/12/29 02:23:14;;;;;;;3.07;1.43;;;5.30;94.60;;;;;;5015424;28;20070;-78
2020/12/29 02:25:43;;;;;;;3.30;1.67;;;5.30;94.60;;;;;;5012585;28;20490;-77
2020/12/29 02:28:10;;;;;;;4.47;2.03;;;5.30;94.60;;;;;;5013635;28;20108;-77
2020/12/29 02:30:37;;;;;;;4.03;1.87;;;5.30;94.50;;;;;;5045481;28;20482;-78
2020/12/29 02:33:03;;;;;;;3.23;1.80;;;5.30;94.50;;;;;;5013569;28;20134;-78
2020/12/29 02:35:29;;;;;;;3.67;1.83;;;5.30;94.50;;;;;;5012872;28;20050;-78
2020/12/29 02:37:56;;;;;;;3.67;1.90;;;5.30;94.50;;;;;;5013251;28;20061;-77
2020/12/29 02:40:22;;;;;;;2.80;1.60;;;5.30;94.60;;;;;;5013400;28;20077;-78
2020/12/29 02:42:49;;;;;;;3.37;1.93;;;5.30;94.60;;;;;;5012186;28;20038;-78
2020/12/29 02:45:16;;;;;;;3.47;1.77;;;5.30;94.80;;;;;;5007282;28;20038;-78
2020/12/29 02:47:43;;;;;;;4.30;2.10;;;5.30;94.60;;;;;;4995751;28;20433;-78
2020/12/29 02:50:10;;;;;;;3.23;2.17;;;5.30;94.60;;;;;;5013515;28;20490;-78
2020/12/29 02:52:36;;;;;;;4.83;2.40;;;5.30;94.50;;;;;;5011838;28;20034;-78
2020/12/29 02:55:03;;;;;;;4.20;2.30;;;5.30;94.60;;;;;;5013273;28;20048;-78
2020/12/29 02:57:29;;;;;;;4.60;2.37;;;5.30;94.50;;;;;;5019012;28;20029;-78
2020/12/29 02:59:56;;;;;;;3.80;2.20;;;5.30;94.50;;;;;;4997718;28;20044;-78
2020/12/29 03:02:22;;;;;;;3.80;2.57;;;5.30;94.50;;;;;;4996025;28;20041;-78
2020/12/29 03:04:49;;;;;;;4.33;2.40;;;5.30;94.50;;;;;;5015999;28;20045;-77
2020/12/29 03:07:17;;;;;;;4.13;2.23;;;5.30;94.50;;;;;;5017552;28;20045;-78
2020/12/29 03:09:43;;;;;;;3.73;2.17;;;5.30;94.50;;;;;;4992045;28;20043;-77
2020/12/29 03:12:11;;;;;;;5.57;2.57;;;5.30;94.50;;;;;;5014700;28;20516;-78
2020/12/29 03:14:38;;;;;;;4.93;2.73;;;5.30;94.60;;;;;;5013596;28;20125;-78
2020/12/29 03:17:04;;;;;;;4.70;2.40;;;5.30;94.50;;;;;;5009533;28;20046;-78
2020/12/29 03:19:31;;;;;;;4.47;2.83;;;5.30;94.50;;;;;;5011682;28;20513;-77
2020/12/29 03:21:57;;;;;;;4.00;2.40;;;5.30;94.50;;;;;;5011854;28;20126;-78
2020/12/29 03:24:24;;;;;;;5.30;2.83;;;5.30;94.50;;;;;;4995540;28;20038;-78
2020/12/29 03:26:52;;;;;;;4.20;2.70;;;5.30;94.50;;;;;;5010973;28;20111;-73
2020/12/29 03:29:18;;;;;;;5.00;3.37;;;5.30;94.50;;;;;;5024167;28;20042;-73
2020/12/29 03:31:45;;;;;;;6.40;3.40;;;5.30;94.50;;;;;;5011686;28;20054;-73
2020/12/29 03:34:22;;;;;;;4.93;2.67;;;5.30;94.50;;;;;;5017983;28;20045;-73
2020/12/29 03:36:49;;;;;;;4.27;2.67;;;5.30;94.50;;;;;;5010145;28;20489;-73
2020/12/29 03:39:16;;;;;;;4.83;3.00;;;5.30;94.50;;;;;;5011053;28;20121;-73
2020/12/29 03:41:43;;;;;;;5.80;3.27;;;5.30;94.40;;;;;;5012688;28;20046;-73
2020/12/29 03:44:10;;;;;;;5.50;3.93;;;5.30;94.50;;;;;;5017471;28;20428;-74
2020/12/29 03:46:37;;;;;;;5.43;3.63;;;5.30;94.70;;;;;;5017384;28;20754;-74
2020/12/29 03:49:04;;;;;;;6.57;4.10;;;5.30;94.40;;;;;;5021001;28;20116;-73
2020/12/29 03:51:31;;;;;;;6.03;3.83;;;5.30;94.40;;;;;;5014128;28;20482;-73
2020/12/29 03:53:57;;;;;;;8.37;4.83;;;5.30;94.40;;;;;;5013799;28;20053;-73
2020/12/29 03:56:24;;;;;;;7.23;5.03;;;5.20;94.40;;;;;;5014916;28;20512;-73
2020/12/29 03:58:50;;;;;;;6.40;4.60;;;5.20;94.30;;;;;;5013538;28;20056;-73
2020/12/29 04:01:17;;;;;;;7.67;5.23;;;5.20;94.30;;;;;;5013641;28;20050;-73
2020/12/29 04:03:44;;;;;;;7.60;5.00;;;5.20;94.40;;;;;;5015208;28;20486;-73
2020/12/29 04:06:14;;;;;;;8.60;4.97;;;5.20;94.40;;;;;;5013607;28;20113;-73
2020/12/29 04:08:40;;;;;;;6.63;4.67;;;5.10;94.30;;;;;;5014608;28;20104;-73
2020/12/29 04:11:07;;;;;;;5.67;3.80;;;5.10;94.40;;;;;;5023913;28;20045;-73
2020/12/29 04:13:50;;;;;;;6.80;4.47;;;5.10;94.40;;;;;;5028941;28;20064;-74
2020/12/29 04:16:19;;;;;;;6.53;4.17;;;5.10;94.40;;;;;;5016377;28;20053;-74
2020/12/29 04:18:46;;;;;;;5.83;3.60;;;5.10;94.40;;;;;;5027539;28;20095;-73
2020/12/29 04:21:13;;;;;;;8.40;4.93;;;5.10;94.40;;;;;;5030685;28;20042;-73
2020/12/29 04:23:39;;;;;;;7.23;5.07;;;5.10;94.40;;;;;;5024536;28;20045;-73
2020/12/29 04:26:10;;;;;;;5.57;4.60;;;5.10;94.30;;;;;;5024175;28;20417;-73
2020/12/29 04:28:37;;;;;;;9.10;6.47;;;5.10;94.40;;;;;;5014530;28;20041;-73
2020/12/29 04:31:04;;;;;;;10.17;6.07;;;5.00;94.30;;;;;;5013127;28;20439;-73
2020/12/29 04:33:30;;;;;;;8.50;5.27;;;5.00;94.30;;;;;;5013530;28;20041;-73
2020/12/29 04:35:57;;;;;;;8.37;6.40;;;5.00;94.40;;;;;;4993954;28;20438;-73
2020/12/29 04:38:23;;;;;;;8.93;5.77;;;4.90;94.30;;;;;;5011233;28;21609;-73
2020/12/29 04:40:50;;;;;;;6.80;4.33;;;4.90;94.40;;;;;;5014221;28;20038;-73
2020/12/29 04:43:16;;;;;;;7.23;4.73;;;4.90;94.40;;;;;;5014175;28;20045;-74
2020/12/29 04:45:43;;;;;;;7.03;5.40;;;4.90;94.40;;;;;;5043418;28;20037;-73
2020/12/29 04:48:11;;;;;;;7.27;4.73;;;4.90;94.50;;;;;;5012540;28;20061;-73
2020/12/29 04:50:38;;;;;;;7.23;4.97;;;4.90;94.50;;;;;;5012711;28;20068;-73
2020/12/29 04:53:08;;;;;;;6.40;3.77;;;4.80;94.50;;;;;;5013374;28;20053;-73
2020/12/29 04:55:42;;;;;;;6.37;4.23;;;4.80;94.50;;;;;;5013423;28;20046;-74
2020/12/29 04:58:08;;;;;;;;;;;4.80;94.50;;;;;;5013897;28;20041;-74
2020/12/29 05:00:35;;;;;;;9.37;4.87;;;4.80;94.50;;;;;;5013454;28;20029;-73
2020/12/29 05:03:02;;;;;;;7.90;5.00;;;4.80;94.60;;;;;;5013284;28;20050;-73
2020/12/29 05:05:28;;;;;;;6.50;5.07;;;4.80;94.50;;;;;;5014884;28;20046;-78
2020/12/29 05:07:55;;;;;;;7.10;5.37;;;4.80;94.60;;;;;;5019546;28;20112;-78
2020/12/29 05:10:22;;;;;;;8.30;5.70;;;4.80;94.60;;;;;;5024110;28;20493;-78
2020/12/29 05:12:50;;;;;;;8.20;5.73;;;4.80;94.60;;;;;;4993739;28;20045;-78
2020/12/29 05:15:20;;;;;;;8.33;5.80;;;4.80;94.60;;;;;;5004677;28;20042;-78
2020/12/29 05:17:48;;;;;;;7.87;5.00;;;4.80;94.60;;;;;;5014983;28;20053;-78
2020/12/29 05:20:20;;;;;;;7.27;5.00;;;4.90;94.60;;;;;;5046537;28;20038;-78
2020/12/29 05:22:48;;;;;;;7.87;5.07;;;4.90;94.60;;;;;;4997683;28;20041;-78
2020/12/29 05:25:17;;;;;;;8.40;5.93;;;4.90;94.60;;;;;;5014156;28;20038;-78
2020/12/29 05:27:44;;;;;;;9.73;6.13;;;4.90;94.50;;;;;;5013807;28;20050;-78
2020/12/29 05:30:11;;;;;;;8.73;5.73;;;4.90;94.50;;;;;;4997450;28;20046;-79
2020/12/29 05:32:39;;;;;;;8.87;6.13;;;4.90;94.50;;;;;;5013992;28;20034;-78
2020/12/29 05:35:11;;;;;;;9.20;6.00;;;5.00;94.60;;;;;;5013893;28;20054;-78
2020/12/29 05:37:38;;;;;;;9.93;6.47;;;5.00;94.50;;;;;;5013685;28;20062;-78
2020/12/29 05:40:28;;;;;;;11.47;7.23;;;4.90;94.50;;;;;;4994628;28;20105;-78
2020/12/29 05:42:57;;;;;;;12.60;7.63;;;5.00;94.50;;;;;;5014840;28;20077;-78
2020/12/29 05:45:30;;;;;;;13.17;9.17;;;4.90;94.50;;;;;;5013551;28;20052;-78
2020/12/29 05:47:59;;;;;;;12.60;8.60;;;4.90;94.50;;;;;;4997143;28;20060;-78
2020/12/29 05:50:27;;;;;;;11.93;7.83;;;4.90;94.50;;;;;;5013479;28;20038;-79
2020/12/29 05:53:06;;;;;;;11.53;7.23;;;4.90;94.50;;;;;;5013378;28;20100;-78
2020/12/29 05:55:33;;;;;;;10.90;6.23;;;4.90;94.60;;;;;;5013197;28;20080;-78
2020/12/29 05:58:08;;;;;;;9.93;6.27;;;4.90;94.60;;;;;;5013006;28;20383;-78
2020/12/29 06:00:37;;;;;;;11.83;7.17;;;5.00;94.60;;;;;;5013422;28;20046;-78
2020/12/29 06:03:06;;;;;;;10.57;6.90;;;5.00;94.60;;;;;;5002076;28;20050;-78
2020/12/29 06:05:36;;;;;;;11.60;7.17;;;5.00;94.90;;;;;;5013145;28;20037;-78
2020/12/29 06:08:07;;;;;;;12.70;8.13;;;5.00;94.60;;;;;;5013064;28;20036;-78
2020/12/29 06:10:35;;;;;;;11.27;7.20;;;5.00;94.60;;;;;;5012251;28;20050;-78
2020/12/29 06:13:04;;;;;;;10.30;6.93;;;5.00;94.60;;;;;;5012863;28;20072;-78
2020/12/29 06:15:36;;;;;;;11.07;6.37;;;5.00;94.60;;;;;;5013021;28;20566;-78
2020/12/29 06:18:06;;;;;;;11.73;6.80;;;5.10;94.70;;;;;;5012604;28;20042;-78
2020/12/29 06:20:39;;;;;;;14.27;9.40;;;5.00;94.60;;;;;;5014159;28;20042;-78
2020/12/29 06:23:06;;;;;;;17.83;10.27;;;5.00;94.50;;;;;;5012798;28;20034;-78
2020/12/29 06:25:37;;;;;;;15.80;10.03;;;5.00;94.80;;;;;;5012834;28;20038;-78
2020/12/29 06:28:05;;;;;;;16.03;9.70;;;5.00;94.50;;;;;;5012698;28;20457;-78
2020/12/29 06:30:35;;;;;;;17.20;10.37;;;5.00;94.60;;;;;;5003894;28;20041;-78
2020/12/29 06:33:03;;;;;;;16.13;9.43;;;5.00;94.60;;;;;;4993025;28;20116;-79
2020/12/29 06:35:30;;;;;;;16.77;9.47;;;5.00;94.60;;;;;;5012601;28;20046;-78
2020/12/29 06:38:04;;;;;;;14.73;9.00;;;5.00;94.60;;;;;;5012762;28;20173;-78
2020/12/29 06:40:31;;;;;;;14.17;8.90;;;5.00;94.60;;;;;;5012558;28;20034;-78
2020/12/29 06:42:58;;;;;;;20.07;10.77;;;5.00;94.60;;;;;;5013796;28;20053;-78
2020/12/29 06:45:31;;;;;;;17.67;10.30;;;5.00;94.60;;;;;;5013477;28;20796;-78
2020/12/29 06:47:58;;;;;;;18.90;10.40;;;4.90;94.60;;;;;;4996965;28;20520;-79
2020/12/29 06:50:26;;;;;;;16.10;9.97;;;4.90;94.70;;;;;;5012062;28;20074;-79
2020/12/29 06:52:57;;;;;;;15.87;9.30;;;4.90;94.70;;;;;;5012304;28;20049;-83
2020/12/29 06:55:34;;;;;;;14.70;8.37;;;4.90;94.70;;;;;;5012359;28;20073;-83
2020/12/29 06:58:01;;;;;;;12.67;8.33;;;4.90;94.70;;;;;;5013447;28;20085;-79
2020/12/29 07:00:28;;;;;;;18.17;11.27;;;4.90;94.80;;;;;;5013048;28;20041;-78
2020/12/29 07:02:54;;;;;;;15.17;9.97;;;5.00;94.70;;;;;;5028510;28;20088;-78
2020/12/29 07:05:26;;;;;;;16.20;9.40;;;5.00;94.70;;;;;;5011987;28;20045;-78
2020/12/29 07:07:55;;;;;;;19.67;11.67;;;5.00;94.80;;;;;;5011276;28;20030;-79
2020/12/29 07:10:36;;;;;;;20.97;11.20;;;5.00;94.80;;;;;;4995900;28;20449;-80
2020/12/29 07:13:16;;;;;;;18.70;11.40;;;4.90;94.70;;;;;;4993730;28;20050;-80
2020/12/29 07:15:53;;;;;;;21.67;12.80;;;4.90;94.80;;;;;;5011943;28;20045;-79
2020/12/29 07:18:28;;;;;;;19.70;12.60;;;4.90;94.70;;;;;;5009948;28;20485;-79
2020/12/29 07:20:58;;;;;;;20.13;11.77;;;4.80;94.70;;;;;;4995326;28;20073;-79
2020/12/29 07:23:28;;;;;;;20.33;12.30;;;4.90;94.80;;;;;;5011844;28;20050;-79
2020/12/29 07:25:58;;;;;;;19.53;12.33;;;4.80;94.80;;;;;;5012101;28;20554;-78
2020/12/29 07:28:26;;;;;;;18.70;11.33;;;4.80;94.80;;;;;;5044693;28;20084;-78
2020/12/29 07:30:53;;;;;;;21.27;12.20;;;4.80;94.80;;;;;;5044837;28;20045;-79
2020/12/29 07:33:25;;;;;;;15.73;9.80;;;4.80;94.80;;;;;;5012854;28;20045;-79
2020/12/29 07:35:52;;;;;;;16.00;9.60;;;4.80;94.80;;;;;;5013122;28;20048;-79
2020/12/29 07:38:21;;;;;;;17.10;9.60;;;4.70;94.80;;;;;;5012884;28;20116;-79
2020/12/29 07:40:48;;;;;;;14.10;8.10;;;4.70;94.80;;;;;;5012012;28;20096;-73
2020/12/29 07:43:15;;;;;;;12.43;7.13;;;4.70;94.90;;;;;;5009809;28;20053;-73
2020/12/29 07:45:42;;;;;;;13.77;7.60;;;4.70;94.90;;;;;;5009658;28;20449;-73
2020/12/29 07:48:08;;;;;;;13.47;7.83;;;4.70;94.90;;;;;;5017576;28;20069;-73
2020/12/29 07:50:37;;;;;;;15.00;8.07;;;4.70;94.80;;;;;;5009779;28;20054;-73
2020/12/29 07:53:11;;;;;;;13.57;7.30;;;4.70;94.80;;;;;;5011452;28;20401;-74
2020/12/29 07:55:42;;;;;;;16.13;7.33;;;4.70;94.80;;;;;;5011508;28;20053;-73
2020/12/29 07:58:09;;;;;;;15.83;7.57;;;4.60;94.80;;;;;;5009534;28;20046;-74
2020/12/29 08:00:37;;;;;;;16.40;8.03;;;4.60;94.80;;;;;;5009611;28;20077;-74
2020/12/29 08:03:04;;;;;;;15.73;7.60;;;4.60;94.80;;;;;;5011560;28;20038;-74
2020/12/29 08:05:33;;;;;;;17.83;9.67;;;4.60;94.80;;;;;;5011194;28;20104;-74
2020/12/29 08:08:02;;;;;;;18.03;9.30;;;4.60;94.80;;;;;;5003556;28;20034;-74
2020/12/29 08:10:31;;;;;;;18.17;8.67;;;4.60;94.80;;;;;;5011063;28;20034;-74
2020/12/29 08:13:03;;;;;;;15.63;8.03;;;4.50;94.80;;;;;;5010074;28;20054;-74
2020/12/29 08:15:35;;;;;;;15.82;7.90;;;4.50;94.90;;;;;;5011474;28;20048;-74
2020/12/29 08:18:05;;;;;;;18.67;10.40;;;4.60;94.90;;;;;;5011609;28;20034;-74
2020/12/29 08:20:33;;;;;;;19.80;9.90;;;4.50;94.90;;;;;;5011369;28;20081;-74
2020/12/29 08:23:04;;;;;;;18.47;9.20;;;4.50;94.90;;;;;;5010108;28;20065;-74
2020/12/29 08:25:32;;;;;;;22.77;11.67;;;4.50;94.80;;;;;;5005522;28;20077;-75
2020/12/29 08:28:03;;;;;;;23.07;11.23;;;4.40;94.80;;;;;;5010928;28;20041;-75
2020/12/29 08:30:31;;;;;;;24.30;12.10;;;4.40;94.80;;;;;;5011045;28;20057;-75
2020/12/29 08:33:02;;;;;;;24.90;12.70;;;4.40;94.90;;;;;;5011681;28;20050;-75
2020/12/29 08:35:46;;;;;;;25.40;11.48;;;4.30;94.90;;;;;;5014594;28;20042;-75
2020/12/29 08:38:30;;;;;;;21.58;10.73;;;4.30;94.90;;;;;;5014197;28;20133;-75
2020/12/29 08:41:12;;;;;;;23.20;10.40;;;4.30;95.00;;;;;;5013628;28;20068;-75
2020/12/29 08:43:51;;;;;;;21.13;10.70;;;4.30;95.00;;;;;;5013297;28;20073;-75
2020/12/29 08:46:20;;;;;;;19.10;9.50;;;4.20;94.90;;;;;;5014717;28;20038;-75
2020/12/29 08:49:01;;;;;;;18.20;8.97;;;4.20;95.00;;;;;;5014469;28;20040;-75
2020/12/29 08:51:29;;;;;;;20.63;9.83;;;4.20;95.10;;;;;;5013952;28;20034;-75
2020/12/29 08:54:14;;;;;;;19.60;9.27;;;4.20;95.10;;;;;;5013408;28;20057;-85
2020/12/29 08:56:41;;;;;;;20.07;10.27;;;4.20;95.10;;;;;;5013812;28;20053;-75
2020/12/29 08:59:16;;;;;;;20.20;10.40;;;4.10;95.00;;;;;;5043589;28;20092;-75
2020/12/29 09:01:44;;;;;;;18.27;9.27;;;4.20;95.10;;;;;;5014251;28;20046;-75
2020/12/29 09:04:26;;;;;;;18.80;9.13;;;4.20;95.10;;;;;;5014181;28;21639;-75
2020/12/29 09:07:11;;;;;;;18.00;8.73;;;4.20;95.00;;;;;;5013572;28;20442;-75
2020/12/29 09:09:53;;;;;;;16.07;7.83;;;4.20;95.00;;;;;;5012293;28;20073;-75
2020/12/29 09:12:29;;;;;;;14.07;7.80;;;4.20;95.10;;;;;;5014434;28;20056;-75
2020/12/29 09:15:08;;;;;;;17.83;8.83;;;4.20;95.10;;;;;;5034336;28;20041;-75
2020/12/29 09:17:43;;;;;;;15.73;8.10;;;4.20;95.10;;;;;;5013884;28;20050;-75
2020/12/29 09:20:25;;;;;;;18.40;8.93;;;4.20;95.30;;;;;;5011506;28;20042;-75
2020/12/29 09:23:02;;;;;;;17.03;8.37;;;4.20;95.00;;;;;;5013793;28;20033;-85
2020/12/29 09:25:43;;;;;;;18.10;9.17;;;4.20;95.00;;;;;;5012271;28;20053;-84
2020/12/29 09:28:18;;;;;;;21.23;9.77;;;4.20;95.00;;;;;;5004695;28;20058;-85
2020/12/29 09:31:05;;;;;;;22.30;10.73;;;4.20;94.90;;;;;;5019982;28;20037;-85
2020/12/29 09:33:33;;;;;;;21.60;11.50;;;4.20;95.00;;;;;;5013646;28;20413;-85
2020/12/29 09:36:03;;;;;;;19.40;9.80;;;4.20;94.90;;;;;;5014786;28;20045;-83
2020/12/29 09:38:31;;;;;;;20.97;11.20;;;4.20;95.00;;;;;;5013725;28;20062;-86
2020/12/29 09:41:00;;;;;;;25.40;11.63;;;4.20;95.00;;;;;;5047101;28;20045;-86
2020/12/29 09:43:27;;;;;;;23.33;11.57;;;4.10;95.00;;;;;;5012666;28;20118;-84
2020/12/29 09:45:53;;;;;;;19.37;10.00;;;4.10;95.00;;;;;;5001782;28;20034;-84
2020/12/29 09:48:20;;;;;;;20.17;9.70;;;4.10;95.10;;;;;;5045269;28;20048;-84
2020/12/29 09:50:46;;;;;;;21.67;9.50;;;4.20;95.20;;;;;;5012307;28;20038;-84
2020/12/29 09:53:13;;;;;;;19.63;10.10;;;4.20;95.10;;;;;;5012426;28;20044;-84
2020/12/29 09:55:40;;;;;;;21.40;10.60;;;4.30;95.10;;;;;;5012266;28;20038;-83
2020/12/29 09:58:06;;;;;;;20.67;10.23;;;4.30;95.00;;;;;;5014280;28;20037;-81
2020/12/29 10:00:33;;;;;;;20.80;10.43;;;4.20;95.20;;;;;;5013003;28;20076;-84
2020/12/29 10:03:00;;;;;;;20.93;11.00;;;4.30;95.10;;;;;;5012914;28;20049;-82
2020/12/29 10:05:27;;;;;;;19.17;9.73;;;4.30;95.00;;;;;;4996289;28;20085;-82
2020/12/29 10:07:54;;;;;;;18.60;9.73;;;4.30;95.10;;;;;;5012524;28;20445;-84
2020/12/29 10:10:21;;;;;;;18.53;9.03;;;4.30;95.10;;;;;;4995854;28;20438;-84
2020/12/29 10:12:47;;;;;;;19.37;9.50;;;4.30;95.00;;;;;;5012662;28;20116;-83
2020/12/29 10:15:14;;;;;;;16.50;8.53;;;4.40;95.00;;;;;;5012323;28;20041;-82
2020/12/29 10:17:40;;;;;;;17.50;7.83;;;4.40;95.00;;;;;;4994556;28;20054;-82
2020/12/29 10:20:07;;;;;;;14.63;6.93;;;4.40;95.00;;;;;;5013670;28;20073;-82
2020/12/29 10:22:34;;;;;;;16.00;7.97;;;4.40;95.00;;;;;;4996165;28;20034;-82
2020/12/29 10:25:03;;;;;;;16.07;7.43;;;4.40;95.00;;;;;;5013663;28;20041;-82
2020/12/29 10:27:29;;;;;;;16.33;7.33;;;4.50;95.10;;;;;;5013391;28;20038;-82
2020/12/29 10:29:56;;;;;;;14.23;6.80;;;4.50;95.00;;;;;;5013078;28;20046;-83
2020/12/29 10:32:22;;;;;;;15.40;8.50;;;4.50;95.30;;;;;;5013266;28;20441;-83
2020/12/29 10:34:49;;;;;;;14.50;7.27;;;4.50;95.00;;;;;;4995538;28;20042;-82
2020/12/29 10:37:17;;;;;;;14.63;7.40;;;4.50;95.00;;;;;;4996300;28;20496;-84
2020/12/29 10:39:43;;;;;;;14.97;7.77;;;4.50;95.00;;;;;;5012505;28;20082;-83
2020/12/29 10:42:10;;;;;;;16.33;8.67;;;4.60;95.00;;;;;;4996124;28;20045;-83
2020/12/29 10:44:36;;;;;;;14.00;7.07;;;4.50;95.00;;;;;;4995046;28;20034;-76
2020/12/29 10:47:03;;;;;;;18.57;9.50;;;4.60;95.00;;;;;;4978658;28;20046;-74
2020/12/29 10:49:32;;;;;;;18.90;9.73;;;4.50;94.90;;;;;;4994468;28;20034;-74
2020/12/29 10:51:59;;;;;;;18.50;10.07;;;4.50;95.00;;;;;;4994457;28;20045;-74
2020/12/29 10:54:26;;;;;;;19.47;10.47;;;4.50;94.90;;;;;;4994543;28;20050;-73
2020/12/29 10:56:52;;;;;;;18.77;10.30;;;4.50;95.00;;;;;;5026836;28;20046;-73
2020/12/29 10:59:18;;;;;;;19.43;10.53;;;4.50;95.00;;;;;;4994366;28;20050;-73
2020/12/29 11:01:45;;;;;;;18.90;9.07;;;4.50;95.00;;;;;;5043228;28;20046;-74
2020/12/29 11:04:11;;;;;;;17.20;8.77;;;4.50;95.00;;;;;;4994231;28;20046;-73
2020/12/29 11:06:38;;;;;;;17.70;9.90;;;4.60;95.00;;;;;;5011550;28;20116;-75
2020/12/29 11:09:05;;;;;;;20.00;9.00;;;4.60;95.00;;;;;;5010084;28;20042;-74
2020/12/29 11:11:31;;;;;;;19.90;9.83;;;4.60;95.00;;;;;;5009634;28;20065;-74
2020/12/29 11:13:58;;;;;;;19.30;9.87;;;4.60;95.00;;;;;;5010185;28;20449;-73
2020/12/29 11:16:24;;;;;;;23.80;12.70;;;4.60;95.00;;;;;;4992567;28;20399;-74
2020/12/29 11:18:51;;;;;;;22.63;11.13;;;4.60;95.00;;;;;;5000566;28;20445;-74
2020/12/29 11:21:19;;;;;;;22.80;11.13;;;4.60;95.00;;;;;;5007667;28;20050;-74
2020/12/29 11:23:46;;;;;;;19.83;11.30;;;4.60;95.00;;;;;;4990891;28;20729;-74
2020/12/29 11:26:17;;;;;;;25.57;13.60;;;4.50;95.00;;;;;;5010169;28;20046;-74
2020/12/29 11:28:44;;;;;;;19.70;11.70;;;4.50;95.00;;;;;;5023716;28;20046;-75
2020/12/29 11:31:13;;;;;;;20.53;12.30;;;4.50;95.00;;;;;;4994678;28;20132;-74
2020/12/29 11:33:39;;;;;;;27.40;14.77;;;4.50;95.10;;;;;;5009477;28;20045;-73
2020/12/29 11:36:06;;;;;;;22.87;12.73;;;4.50;95.10;;;;;;5039449;28;20460;-75
2020/12/29 11:38:33;;;;;;;41.03;24.43;;;4.50;95.10;;;;;;4997528;28;20395;-74
2020/12/29 11:41:00;;;;;;;57.33;30.73;;;4.50;95.20;;;;;;5011854;28;20038;-73
2020/12/29 11:43:26;;;;;;;51.63;28.20;;;4.50;95.10;;;;;;5011587;28;20042;-76
2020/12/29 11:45:53;;;;;;;76.03;43.67;;;4.60;95.20;;;;;;5011754;28;20038;-81
2020/12/29 11:48:21;;;;;;;69.30;38.30;;;4.60;95.20;;;;;;5037434;28;20054;-74
2020/12/29 11:50:48;;;;;;;76.43;45.03;;;4.60;95.10;;;;;;5017060;28;20069;-74
2020/12/29 11:53:14;;;;;;;114.50;63.83;;;4.60;95.10;;;;;;5018559;28;20206;-75
2020/12/29 11:55:41;;;;;;;92.47;51.20;;;4.60;95.10;;;;;;5017158;28;20054;-78
2020/12/29 11:58:07;;;;;;;109.37;61.43;;;4.70;95.10;;;;;;5013565;28;20121;-75
2020/12/29 12:00:34;;;;;;;84.80;46.70;;;4.70;95.10;;;;;;5011223;28;20115;-75
2020/12/29 12:03:06;;;;;;;65.82;37.58;;;4.70;95.10;;;;;;5005928;28;20037;-75
2020/12/29 12:05:33;;;;;;;52.87;29.67;;;4.70;95.10;;;;;;5036576;28;20034;-75
2020/12/29 12:07:59;;;;;;;44.57;24.03;;;4.70;95.10;;;;;;5026414;28;20038;-75
2020/12/29 12:10:26;;;;;;;44.37;21.90;;;4.80;95.10;;;;;;5010542;28;20046;-76
2020/12/29 12:12:52;;;;;;;57.77;30.33;;;4.80;95.10;;;;;;5012947;28;20100;-77
2020/12/29 12:15:19;;;;;;;46.17;25.63;;;4.80;95.10;;;;;;5011859;28;20498;-74
2020/12/29 12:17:45;;;;;;;41.27;21.87;;;4.90;95.10;;;;;;5002948;28;20501;-74
2020/12/29 12:20:12;;;;;;;39.07;20.33;;;4.90;95.10;;;;;;5013871;28;20033;-75
2020/12/29 12:22:38;;;;;;;35.20;19.43;;;4.90;95.10;;;;;;5013303;28;20073;-75
2020/12/29 12:25:06;;;;;;;34.63;19.57;;;4.90;95.10;;;;;;4997387;28;20042;-75
2020/12/29 12:27:33;;;;;;;32.07;18.63;;;5.00;95.10;;;;;;5014870;28;20045;-74
2020/12/29 12:30:00;;;;;;;38.17;20.30;;;5.00;95.10;;;;;;5014385;28;20052;-75
2020/12/29 12:32:27;;;;;;;38.30;21.90;;;5.10;95.10;;;;;;5046759;28;20065;-75
2020/12/29 12:34:53;;;;;;;38.67;20.60;;;5.10;95.10;;;;;;5013860;28;20502;-76
2020/12/29 12:37:20;;;;;;;43.77;24.10;;;5.10;95.30;;;;;;4997447;28;20442;-77
2020/12/29 12:39:46;;;;;;;43.67;25.20;;;5.10;95.00;;;;;;4996929;28;20410;-76
2020/12/29 12:42:18;;;;;;;43.97;22.97;;;5.10;95.10;;;;;;4997729;28;20041;-76
2020/12/29 12:44:44;;;;;;;36.57;22.10;;;5.20;95.10;;;;;;5013627;28;20046;-76
2020/12/29 12:47:11;;;;;;;40.13;23.33;;;5.20;95.00;;;;;;5015513;28;20108;-76
2020/12/29 12:49:37;;;;;;;44.23;23.93;;;5.30;95.00;;;;;;5030628;28;20041;-79
2020/12/29 12:52:04;;;;;;;43.27;22.57;;;5.20;94.90;;;;;;5023187;28;20047;-76
2020/12/29 12:54:30;;;;;;;36.40;21.10;;;5.20;94.90;;;;;;5030245;28;20452;-78
2020/12/29 12:56:57;;;;;;;41.63;22.50;;;5.30;95.00;;;;;;5030504;28;20045;-77